Latest Weather Observations for Samuel Hill

IDQ60801

Issued at 7:32 pm EST Friday 12 February 2016 (issued every 30 minutes, with the page automatically refreshed every 10 minutes)

About weather observations | Map of weather stations | Latest weather observations for QLD | Other Formats
Station Details ID: 033308 Name: SAMUEL HILL AERO Lat: -22.74 Lon: 150.66 Height: 31.0 m
Data from the previous 72 hours. | See also: Recent months at Samuel Hill
Date/Time
EST
Temp
°C
App
Temp
°C
Dew
Point
Rel
Hum
%
Delta-T
°C
Wind Press
QNH
hPa
Press
MSL
hPa
Rain
since 9 am
mm
Dir
 
Spd
km/h
Gust
km/h
Spd
kts
Gust
kts
12/07:30pm 25.7 27.7 20.7 74 3.3 SE 11 20 6 11 1009.4 1009.2 0.0
12/07:00pm 26.1 27.2 20.4 71 3.7 SE 15 24 8 13 1009.1 1008.9 0.0
12/06:30pm 26.5 27.0 20.1 68 4.2 SE 17 26 9 14 1008.6 1008.4 0.0
12/06:00pm 27.3 28.0 19.6 62 5.0 SE 15 28 8 15 1008.5 1008.3 0.0
12/05:30pm 28.0 27.8 18.4 56 6.1 SE 17 30 9 16 1008.4 1008.2 0.0
12/05:00pm 28.5 27.6 18.3 54 6.5 SE 20 32 11 17 1008.1 1007.9 0.0
12/04:30pm 28.7 27.8 18.2 53 6.7 SE 20 33 11 18 1008.1 1007.9 0.0
12/04:00pm 28.8 27.5 19.1 55 6.3 ESE 24 35 13 19 1008.0 1007.8 0.0
12/03:30pm 29.3 28.4 19.0 53 6.7 SE 22 32 12 17 1008.0 1007.8 0.0
12/03:00pm 29.8 29.0 19.2 53 6.9 SSE 22 35 12 19 1008.0 1007.8 0.0
12/02:30pm 29.5 28.4 18.6 52 7.0 SE 22 41 12 22 1008.0 1007.8 0.0
12/02:00pm 29.5 29.2 19.5 55 6.5 SE 20 30 11 16 1008.3 1008.1 0.0
12/01:30pm 28.6 27.9 19.5 58 5.9 SE 22 37 12 20 1008.6 1008.4 0.0
12/01:00pm 28.9 27.7 19.2 55 6.3 SSE 24 35 13 19 1008.8 1008.6 0.0
12/12:30pm 29.2 28.8 20.1 58 6.0 SSE 22 32 12 17 1009.1 1008.9 0.0
12/12:00pm 28.0 27.2 19.2 58 5.7 SE 22 41 12 22 1009.6 1009.4 0.0
12/11:30am 28.5 27.8 20.2 60 5.5 SSE 24 35 13 19 1009.8 1009.6 0.0
12/11:00am 28.7 28.6 19.9 59 5.8 SE 20 32 11 17 1010.0 1009.8 0.0
12/10:30am 26.8 26.5 19.2 63 4.9 SSE 19 32 10 17 1010.3 1010.1 0.0
12/10:00am 26.9 26.1 20.0 66 4.5 SSE 24 37 13 20 1010.7 1010.5 0.0
12/09:30am 26.8 26.8 20.2 67 4.3 SSE 20 32 11 17 1010.9 1010.7 0.0
12/09:00am 25.5 25.4 19.9 71 3.6 SSE 20 30 11 16 1010.8 1010.6 0.0
12/08:30am 25.0 25.1 20.0 74 3.2 SSE 19 33 10 18 1010.6 1010.4 0.0
12/08:00am 24.5 25.2 19.6 74 3.2 S 15 28 8 15 1010.5 1010.3 0.0
12/07:30am 24.2 24.9 19.7 76 2.9 S 15 22 8 12 1010.4 1010.2 0.0
12/07:00am 23.9 25.1 19.8 78 2.6 SSE 13 20 7 11 1010.2 1010.0 0.0
12/06:30am 23.6 25.1 19.7 79 2.5 S 11 17 6 9 1010.0 1009.8 0.0
12/06:00am 23.6 24.7 19.7 79 2.5 SSE 13 20 7 11 1009.7 1009.5 0.0
12/05:30am 23.7 24.8 19.6 78 2.6 S 13 19 7 10 1009.4 1009.2 0.0
12/05:00am 24.1 24.9 19.8 77 2.8 SSE 15 22 8 12 1009.3 1009.1 0.0
12/04:30am 24.1 24.9 19.8 77 2.8 SSE 15 26 8 14 1009.0 1008.8 0.0
12/04:00am 24.2 25.9 20.1 78 2.7 S 11 20 6 11 1008.9 1008.7 0.0
12/03:30am 24.4 25.8 20.3 78 2.7 SSE 13 20 7 11 1008.9 1008.7 0.0
12/03:00am 24.5 26.3 20.4 78 2.7 SSE 11 20 6 11 1008.9 1008.7 0.0
12/02:30am 24.7 26.2 20.6 78 2.7 SE 13 22 7 12 1009.0 1008.8 0.0
12/02:00am 24.6 26.2 20.7 79 2.6 SE 13 20 7 11 1009.3 1009.1 0.0
12/01:30am 25.0 26.6 20.7 77 2.8 SE 13 20 7 11 1009.4 1009.2 0.0
12/01:00am 25.4 26.3 20.0 72 3.5 SE 15 20 8 11 1009.7 1009.5 0.0
12/12:30am 25.4 26.4 20.2 73 3.4 SE 15 20 8 11 1009.9 1009.7 0.0
12/12:00am 25.3 26.6 20.1 73 3.4 SE 13 20 7 11 1010.0 1009.8 0.0
 
Date/Time
EST
Temp
°C
App
Temp
°C
Dew
Point
Rel
Hum
%
Delta-T
°C
Wind Press
QNH
hPa
Press
MSL
hPa
Rain
since 9 am
mm
Dir
 
Spd
km/h
Gust
km/h
Spd
kts
Gust
kts
11/11:30pm 25.5 26.5 20.3 73 3.4 SE 15 24 8 13 1010.2 1010.0 0.0
11/11:00pm 25.2 26.7 20.5 75 3.1 SE 13 22 7 12 1010.4 1010.2 0.0
11/10:30pm 25.3 27.2 20.5 75 3.1 SE 11 15 6 8 1010.5 1010.3 0.0
11/10:00pm 25.3 27.2 20.5 75 3.1 SSE 11 17 6 9 1010.5 1010.3 0.0
11/09:30pm 25.4 26.9 20.6 75 3.1 SE 13 17 7 9 1010.5 1010.3 0.0
11/09:00pm 25.5 27.4 20.5 74 3.3 SE 11 17 6 9 1010.4 1010.2 0.0
11/08:30pm 25.5 27.5 20.7 75 3.2 SE 11 20 6 11 1010.4 1010.2 0.0
11/08:00pm 25.6 27.1 21.3 77 2.9 SE 15 20 8 11 1010.0 1009.8 0.0
11/07:30pm 25.5 27.2 21.0 76 3.0 SE 13 17 7 9 1009.6 1009.4 0.0
11/07:00pm 25.7 27.0 20.9 75 3.2 ESE 15 24 8 13 1009.3 1009.1 0.0
11/06:30pm 26.0 26.9 20.8 73 3.4 ESE 17 24 9 13 1009.1 1008.9 0.0
11/06:00pm 26.7 27.6 20.8 70 3.9 ESE 17 24 9 13 1008.9 1008.7 0.0
11/05:30pm 26.8 26.7 19.9 66 4.5 ESE 20 30 11 16 1008.7 1008.5 0.0
11/05:00pm 27.9 27.8 19.9 61 5.2 ESE 20 33 11 18 1008.6 1008.4 0.0
11/04:30pm 27.9 27.9 20.2 63 5.1 ESE 20 32 11 17 1008.4 1008.2 0.0
11/04:00pm 28.7 28.6 19.9 59 5.8 SE 20 32 11 17 1008.1 1007.9 0.0
11/03:30pm 28.8 28.4 19.4 56 6.1 ESE 20 33 11 18 1008.0 1007.8 0.0
11/03:00pm 28.5 28.3 19.4 57 5.9 SE 19 30 10 16 1008.1 1007.9 0.0
11/02:30pm 28.6 27.7 19.8 59 5.8 SE 24 35 13 19 1008.4 1008.2 0.0
11/02:00pm 29.0 29.0 21.0 62 5.3 SE 22 33 12 18 1008.7 1008.5 0.0
11/01:30pm 28.8 28.5 20.3 60 5.6 SE 22 37 12 20 1009.0 1008.8 0.0
11/01:00pm 28.5 27.4 19.4 57 5.9 SE 24 41 13 22 1009.2 1009.0 0.0
11/12:30pm 27.4 26.6 20.0 64 4.8 SE 24 35 13 19 1009.5 1009.3 0.0
11/12:00pm 28.9 29.3 20.6 61 5.5 SSE 19 33 10 18 1009.7 1009.5 0.0
11/11:30am 28.1 28.1 20.1 62 5.2 SSE 20 33 11 18 1010.1 1009.9 0.0
11/11:00am 27.9 28.7 20.7 65 4.8 SE 17 26 9 14 1010.4 1010.2 0.0
11/10:30am 27.7 27.6 20.0 63 5.0 ESE 20 30 11 16 1010.6 1010.4 0.0
11/10:00am 26.5 26.8 20.3 68 4.1 SSE 19 30 10 16 1010.6 1010.4 0.0
11/09:30am 25.7 26.0 20.7 74 3.3 SSE 20 28 11 15 1010.6 1010.4 0.0
11/09:00am 25.7 27.0 20.9 75 3.2 SSE 15 22 8 12 1010.6 1010.4 0.4
11/08:30am 25.0 25.8 20.7 77 2.8 SE 17 30 9 16 1010.6 1010.4 0.4
11/08:00am 24.6 26.3 20.9 80 2.4 SSE 13 20 7 11 1010.5 1010.3 0.4
11/07:30am 24.1 25.7 20.8 82 2.2 SSE 13 22 7 12 1010.2 1010.0 0.4
11/07:00am 23.4 24.9 20.5 84 1.9 SSE 13 20 7 11 1009.9 1009.7 0.4
11/06:30am 23.2 25.2 20.7 86 1.6 SSE 11 17 6 9 1009.7 1009.5 0.4
11/06:00am 23.0 24.9 20.5 86 1.6 SSE 11 17 6 9 1009.5 1009.3 0.4
11/05:30am 22.7 24.5 20.4 87 1.5 SSE 11 17 6 9 1009.2 1009.0 0.4
11/05:00am 22.8 24.3 20.5 87 1.5 SSE 13 20 7 11 1008.9 1008.7 0.4
11/04:30am 22.9 25.4 21.0 89 1.2 S 9 15 5 8 1008.7 1008.5 0.4
11/04:00am 23.0 24.8 21.1 89 1.2 SSE 13 19 7 10 1008.6 1008.4 0.4
11/03:30am 23.1 25.1 20.8 87 1.5 SSE 11 17 6 9 1008.5 1008.3 0.4
11/03:00am 23.0 25.0 20.7 87 1.5 SSE 11 13 6 7 1008.6 1008.4 0.4
11/02:30am 22.8 25.1 20.7 88 1.4 SSE 9 13 5 7 1008.7 1008.5 0.4
11/02:00am 23.7 25.0 20.8 84 1.9 SSE 15 24 8 13 1008.8 1008.6 0.2
11/01:30am 24.7 26.0 20.8 79 2.6 SE 15 30 8 16 1008.8 1008.6 0.2
11/01:00am 24.6 26.5 20.5 78 2.7 SE 11 15 6 8 1009.0 1008.8 0.2
11/12:30am 24.9 26.8 20.6 77 2.8 SE 11 17 6 9 1009.3 1009.1 0.2
11/12:00am 24.8 26.9 20.9 79 2.6 SE 11 20 6 11 1009.8 1009.6 0.2
 
Date/Time
EST
Temp
°C
App
Temp
°C
Dew
Point
Rel
Hum
%
Delta-T
°C
Wind Press
QNH
hPa
Press
MSL
hPa
Rain
since 9 am
mm
Dir
 
Spd
km/h
Gust
km/h
Spd
kts
Gust
kts
10/11:30pm 24.4 26.4 20.7 80 2.4 SE 11 17 6 9 1010.2 1010.0 0.2
10/11:00pm 24.8 26.6 21.1 80 2.4 SE 13 20 7 11 1010.4 1010.2 0.2
10/10:30pm 24.7 26.2 21.2 81 2.3 ESE 15 26 8 14 1010.7 1010.5 0.2
10/10:00pm 25.6 27.2 20.8 75 3.2 SE 13 22 7 12 1010.7 1010.5 0.0
10/09:30pm 25.3 26.4 20.5 75 3.1 SE 15 22 8 12 1010.8 1010.6 0.0
10/09:00pm 25.5 27.0 21.2 77 2.8 SE 15 20 8 11 1010.7 1010.5 0.0
10/08:30pm 25.4 27.2 21.1 77 2.8 ESE 13 22 7 12 1010.7 1010.5 0.0
10/08:00pm 25.2 27.4 21.1 78 2.7 SE 11 17 6 9 1010.4 1010.2 0.0
10/07:30pm 25.4 27.1 20.9 76 3.0 ESE 13 19 7 10 1010.1 1009.9 0.0
10/07:00pm 25.7 27.1 21.1 76 3.0 ESE 15 24 8 13 1009.9 1009.7 0.0
10/06:30pm 26.0 27.4 21.0 74 3.3 ESE 15 24 8 13 1009.5 1009.3 0.0
10/06:00pm 26.4 26.8 20.7 71 3.8 SE 19 28 10 15 1009.2 1009.0 0.0
10/05:30pm 27.5 28.1 20.3 65 4.7 SE 17 26 9 14 1009.0 1008.8 0.0
10/05:00pm 27.7 27.1 19.8 62 5.2 SE 22 32 12 17 1008.9 1008.7 0.0
10/04:30pm 28.6 29.0 19.8 59 5.8 SE 17 28 9 15 1008.7 1008.5 0.0
10/04:00pm 28.3 27.5 19.2 57 5.9 SE 22 39 12 21 1008.5 1008.3 0.0
10/03:30pm 28.1 27.2 19.9 61 5.4 SE 24 33 13 18 1008.5 1008.3 0.0
10/03:00pm 29.1 28.1 19.7 57 6.2 SE 24 39 13 21 1008.6 1008.4 0.0
10/02:30pm 29.1 28.2 19.1 54 6.5 SE 22 35 12 19 1008.9 1008.7 0.0
10/02:00pm 28.5 27.3 19.2 57 6.0 SE 24 37 13 20 1009.1 1008.9 0.0
10/01:30pm 29.2 28.9 20.4 59 5.8 SE 22 35 12 19 1009.3 1009.1 0.0
10/01:00pm 28.7 27.8 19.9 59 5.8 SE 24 35 13 19 1009.6 1009.4 0.0
10/12:30pm 28.6 28.2 20.1 60 5.6 SE 22 39 12 21 1010.0 1009.8 0.0
10/12:00pm 28.1 26.8 19.1 58 5.8 SSE 24 35 13 19 1010.3 1010.1 0.0
10/11:30am 28.6 28.1 19.2 56 6.1 SE 20 39 11 21 1010.6 1010.4 0.0
10/11:00am 27.9 27.3 19.7 61 5.3 SE 22 37 12 20 1010.6 1010.4 0.0
10/10:30am 27.0 25.7 19.1 62 5.1 SE 24 37 13 20 1010.8 1010.6 0.0
10/10:00am 27.3 27.3 20.1 64 4.7 SE 20 32 11 17 1010.9 1010.7 0.0
10/09:30am 26.0 25.7 20.3 71 3.7 SSE 22 37 12 20 1010.8 1010.6 0.0
10/09:00am 25.2 25.1 20.0 73 3.4 SSE 20 30 11 16 1010.8 1010.6 3.8
10/08:30am 25.7 26.0 20.7 74 3.3 SSE 20 33 11 18 1010.7 1010.5 3.8
10/08:00am 24.9 25.8 20.8 78 2.7 SSE 17 28 9 15 1010.7 1010.5 3.8
10/07:30am 23.8 26.2 20.9 84 1.9 SSE 9 17 5 9 1010.6 1010.4 3.8
10/07:00am 22.6 24.3 20.1 86 1.6 SSW 11 17 6 9 1010.2 1010.0 3.8
10/06:30am 22.2 23.7 19.7 86 1.6 SSE 11 15 6 8 1010.1 1009.9 3.8
10/06:00am 22.0 24.0 19.9 88 1.3 SSW 9 13 5 7 1009.7 1009.5 3.6
10/05:30am 22.1 24.0 19.8 87 1.5 SE 9 15 5 8 1009.5 1009.3 3.6
10/05:00am 22.6 24.2 19.2 81 2.2 S 9 13 5 7 1009.2 1009.0 2.8
10/04:30am 22.7 22.8 19.1 80 2.3 S 17 30 9 16 1009.0 1008.8 2.8
10/04:00am 22.9 23.8 19.3 80 2.3 SSE 13 24 7 13 1009.1 1008.9 2.8
10/03:30am 23.4 23.5 20.0 81 2.2 SSE 19 32 10 17 1009.1 1008.9 2.8
10/03:00am 23.4 23.9 20.0 81 2.2 SE 17 26 9 14 1009.1 1008.9 2.8
10/02:30am 24.9 24.5 18.8 69 3.9 SE 19 26 10 14 1009.2 1009.0 2.4
10/02:00am 24.9 24.3 18.8 69 3.9 SE 20 32 11 17 1009.5 1009.3 2.4
10/01:30am 24.8 24.1 18.7 69 3.9 SE 20 30 11 16 1009.8 1009.6 2.4
10/01:00am 25.0 24.9 18.7 68 4.0 SE 17 26 9 14 1010.1 1009.9 2.4
10/12:30am 25.1 23.9 18.3 66 4.3 SE 22 37 12 20 1010.6 1010.4 2.4
10/12:00am 25.2 24.6 18.9 68 4.0 SE 20 32 11 17 1011.0 1010.8 2.4
 
Date/Time
EST
Temp
°C
App
Temp
°C
Dew
Point
Rel
Hum
%
Delta-T
°C
Wind Press
QNH
hPa
Press
MSL
hPa
Rain
since 9 am
mm
Dir
 
Spd
km/h
Gust
km/h
Spd
kts
Gust
kts
09/11:30pm 25.2 25.0 18.6 67 4.2 SE 17 24 9 13 1011.2 1011.0 2.4
09/11:00pm 25.3 25.1 18.5 66 4.3 SE 17 28 9 15 1011.7 1011.5 2.4
09/10:30pm 25.5 24.7 18.4 65 4.5 SE 20 35 11 19 1012.0 1011.8 2.4
09/10:00pm 25.4 25.0 18.8 67 4.2 SE 19 26 10 14 1012.3 1012.1 2.4
09/09:30pm 25.6 25.1 19.0 67 4.2 SE 20 30 11 16 1012.2 1012.0 2.4
09/09:00pm 25.6 25.9 19.5 69 3.9 SE 17 30 9 16 1012.1 1011.9 2.4
09/08:30pm 25.5 25.7 19.4 69 3.9 SE 17 28 9 15 1012.0 1011.8 2.4
09/08:00pm 25.4 26.2 19.8 71 3.6 SE 15 28 8 15 1011.9 1011.7 2.4

Other Formats:

Comma delimited format used in spreadsheet applications
http://www.bom.gov.au/fwo/IDQ60801/IDQ60801.94370.axf

JavaScript Object Notation format (JSON) in row-major order
http://www.bom.gov.au/fwo/IDQ60801/IDQ60801.94370.json